createdAt,value
2018-03-18T00:00:23.041Z,-0.34
2018-03-18T00:02:50.441Z,-0.29
2018-03-18T00:05:17.854Z,-0.13
2018-03-18T00:07:45.256Z,-0.21
2018-03-18T00:10:12.649Z,-0.26
2018-03-18T00:12:40.042Z,-0.13
2018-03-18T00:15:07.438Z,-0.02
2018-03-18T00:17:34.837Z,0.02
2018-03-18T00:20:02.228Z,0.04
2018-03-18T00:22:29.609Z,0.05
2018-03-18T00:24:57.005Z,-0.14
2018-03-18T00:27:24.402Z,-0.13
2018-03-18T00:29:51.809Z,-0.22
2018-03-18T00:32:19.200Z,-0.13
2018-03-18T00:34:46.612Z,-0.17
2018-03-18T00:37:13.993Z,-0.11
2018-03-18T00:39:41.389Z,-0.04
2018-03-18T00:42:08.782Z,-0.15
2018-03-18T00:44:36.173Z,-0.02
2018-03-18T00:47:03.567Z,-0.13
2018-03-18T00:49:30.990Z,-0.16
2018-03-18T00:52:01.224Z,0.01
2018-03-18T00:54:28.616Z,-0.04
2018-03-18T00:56:56.007Z,-0.05
2018-03-18T00:59:23.405Z,-0.13
2018-03-18T01:01:50.798Z,-0.04
2018-03-18T01:04:18.201Z,-0.08
2018-03-18T01:06:45.591Z,0.05
2018-03-18T01:09:12.988Z,-0.07
2018-03-18T01:11:40.477Z,-0.23
2018-03-18T01:14:07.925Z,-0.27
2018-03-18T01:16:35.262Z,-0.31
2018-03-18T01:19:02.650Z,-0.21
2018-03-18T01:21:30.046Z,-0.15
2018-03-18T01:23:57.461Z,-0.06
2018-03-18T01:26:24.856Z,-0.11
2018-03-18T01:28:52.254Z,0.00
2018-03-18T01:31:19.648Z,0.07
2018-03-18T01:33:47.048Z,0.13
2018-03-18T01:36:14.429Z,0.22
2018-03-18T01:38:41.839Z,0.32
2018-03-18T01:41:09.221Z,0.35
2018-03-18T01:43:36.624Z,0.27
2018-03-18T01:46:04.010Z,0.17
2018-03-18T01:48:31.392Z,0.39
2018-03-18T01:50:58.790Z,0.40
2018-03-18T01:53:26.173Z,0.21
2018-03-18T01:55:53.582Z,0.14
2018-03-18T01:58:20.968Z,0.18
2018-03-18T02:00:48.353Z,0.07
2018-03-18T02:03:15.758Z,-0.01
2018-03-18T02:05:43.153Z,0.09
2018-03-18T02:08:10.549Z,0.24
2018-03-18T02:10:37.937Z,0.12
2018-03-18T02:13:05.335Z,0.13
2018-03-18T02:15:32.730Z,0.04
2018-03-18T02:18:00.122Z,-0.08
2018-03-18T02:20:27.521Z,-0.18
2018-03-18T02:22:54.913Z,-0.08
2018-03-18T02:25:22.320Z,-0.19
2018-03-18T02:27:49.704Z,-0.23
2018-03-18T02:30:17.175Z,-0.05
2018-03-18T02:32:44.597Z,-0.13
2018-03-18T02:35:11.999Z,-0.09
2018-03-18T02:37:39.373Z,-0.23
2018-03-18T02:40:06.778Z,-0.35
2018-03-18T02:42:34.169Z,-0.39
2018-03-18T02:45:01.592Z,-0.36
2018-03-18T02:47:29.301Z,-0.32
2018-03-18T02:49:56.779Z,-0.40
2018-03-18T02:52:24.145Z,-0.34
2018-03-18T02:54:51.545Z,-0.27
2018-03-18T02:57:19.009Z,-0.14
2018-03-18T02:59:46.365Z,-0.31
2018-03-18T03:02:13.761Z,-0.42
2018-03-18T03:04:41.211Z,-0.33
2018-03-18T03:07:08.621Z,-0.21
2018-03-18T03:09:36.066Z,-0.35
2018-03-18T03:12:03.474Z,-0.32
2018-03-18T03:14:30.852Z,-0.40
2018-03-18T03:16:58.265Z,-0.52
2018-03-18T03:19:25.648Z,-0.42
2018-03-18T03:21:53.091Z,-0.40
2018-03-18T03:24:20.529Z,-0.30
2018-03-18T03:26:47.944Z,-0.20
2018-03-18T03:29:15.376Z,-0.18
2018-03-18T03:31:42.766Z,-0.26
2018-03-18T03:34:10.184Z,-0.33
2018-03-18T03:36:37.553Z,-0.29
2018-03-18T03:39:04.952Z,-0.42
2018-03-18T03:41:32.341Z,-0.39
2018-03-18T03:43:59.739Z,-0.20
2018-03-18T03:46:27.140Z,-0.25
2018-03-18T03:48:54.539Z,-0.20
2018-03-18T03:51:21.930Z,-0.30
2018-03-18T03:53:49.331Z,-0.15
2018-03-18T03:56:16.725Z,-0.24
2018-03-18T03:58:44.125Z,-0.26
2018-03-18T04:01:11.531Z,-0.20
2018-03-18T04:03:38.924Z,-0.33
2018-03-18T04:06:06.325Z,-0.36
2018-03-18T04:08:33.754Z,-0.32
2018-03-18T04:11:01.153Z,-0.46
2018-03-18T04:13:28.540Z,-0.36
2018-03-18T04:15:55.936Z,-0.37
2018-03-18T04:18:23.333Z,-0.26
2018-03-18T04:20:50.945Z,-0.11
2018-03-18T04:23:18.349Z,-0.04
2018-03-18T04:25:45.740Z,-0.08
2018-03-18T04:28:13.149Z,-0.09
2018-03-18T04:30:40.564Z,-0.03
2018-03-18T04:33:07.957Z,-0.21
2018-03-18T04:35:35.345Z,-0.10
2018-03-18T04:38:02.742Z,-0.10
2018-03-18T04:40:30.133Z,-0.17
2018-03-18T04:42:57.520Z,-0.30
2018-03-18T04:45:24.912Z,-0.38
2018-03-18T04:47:52.312Z,-0.32
2018-03-18T04:50:19.715Z,-0.31
2018-03-18T04:52:47.110Z,-0.30
2018-03-18T04:55:14.505Z,-0.35
2018-03-18T04:57:41.948Z,-0.36
2018-03-18T05:00:09.322Z,-0.49
2018-03-18T05:02:36.746Z,-0.36
2018-03-18T05:05:04.135Z,-0.46
2018-03-18T05:07:31.550Z,-0.46
2018-03-18T05:09:58.959Z,-0.42
2018-03-18T05:12:26.357Z,-0.49
2018-03-18T05:14:53.761Z,-0.66
2018-03-18T05:17:21.149Z,-0.65
2018-03-18T05:19:48.537Z,-0.64
2018-03-18T05:22:15.949Z,-0.76
2018-03-18T05:24:43.374Z,-0.69
2018-03-18T05:27:10.764Z,-0.86
2018-03-18T05:29:38.182Z,-0.68
2018-03-18T05:32:05.589Z,-0.66
2018-03-18T05:34:33.025Z,-0.64
2018-03-18T05:37:00.416Z,-0.59
2018-03-18T05:39:27.865Z,-0.59
2018-03-18T05:41:55.260Z,-0.49
2018-03-18T05:44:22.646Z,-0.59
2018-03-18T05:46:50.045Z,-0.50
2018-03-18T05:49:17.501Z,-0.42
2018-03-18T05:51:44.897Z,-0.37
2018-03-18T05:54:12.356Z,-0.59
2018-03-18T05:56:39.809Z,-0.70
2018-03-18T05:59:07.247Z,-0.89
2018-03-18T06:01:34.646Z,-1.14
2018-03-18T06:04:02.047Z,-1.16
2018-03-18T06:06:29.445Z,-1.11
2018-03-18T06:08:56.836Z,-1.07
2018-03-18T06:11:24.239Z,-0.92
2018-03-18T06:13:51.644Z,-0.99
2018-03-18T06:16:19.061Z,-1.01
2018-03-18T06:18:46.457Z,-1.00
2018-03-18T06:21:13.865Z,-1.04
2018-03-18T06:23:41.274Z,-1.09
2018-03-18T06:26:08.674Z,-1.05
2018-03-18T06:28:36.116Z,-1.09
2018-03-18T06:31:03.542Z,-0.99
2018-03-18T06:33:30.943Z,-1.00
2018-03-18T06:35:58.352Z,-0.97
2018-03-18T06:38:25.741Z,-0.92
2018-03-18T06:40:53.171Z,-0.78
2018-03-18T06:43:20.558Z,-0.84
2018-03-18T06:45:47.944Z,-0.82
2018-03-18T06:48:15.373Z,-0.74
2018-03-18T06:50:42.821Z,-0.65
2018-03-18T06:53:10.208Z,-0.44
2018-03-18T06:55:40.768Z,-0.56
2018-03-18T06:58:08.268Z,-0.53
2018-03-18T07:00:36.618Z,-0.46
2018-03-18T07:03:04.061Z,-0.44
2018-03-18T07:05:31.495Z,-0.59
2018-03-18T07:07:58.891Z,-0.55
2018-03-18T07:10:26.293Z,-0.52
2018-03-18T07:12:55.497Z,-0.72
2018-03-18T07:15:22.898Z,-0.73
2018-03-18T07:17:50.348Z,-0.87
2018-03-18T07:20:17.767Z,-0.68
2018-03-18T07:22:45.181Z,-0.60
2018-03-18T07:25:12.578Z,-0.43
2018-03-18T07:27:39.974Z,-0.38
2018-03-18T07:30:07.382Z,-0.33
2018-03-18T07:32:34.768Z,-0.17
2018-03-18T07:35:02.160Z,-0.35
2018-03-18T07:37:29.557Z,-0.53
2018-03-18T07:39:56.959Z,-0.76
2018-03-18T07:42:24.361Z,-0.71
2018-03-18T07:44:51.745Z,-0.76
2018-03-18T07:47:19.182Z,-0.51
2018-03-18T07:49:46.536Z,-0.35
2018-03-18T07:52:13.921Z,-0.53
2018-03-18T07:54:41.326Z,-0.43
2018-03-18T07:57:08.717Z,-0.20
2018-03-18T07:59:36.118Z,-0.52
2018-03-18T08:02:03.537Z,-0.48
2018-03-18T08:04:30.909Z,-0.62
2018-03-18T08:06:59.350Z,-0.59
2018-03-18T08:09:26.741Z,-0.39
2018-03-18T08:11:54.137Z,-0.26
2018-03-18T08:14:21.533Z,-0.11
2018-03-18T08:16:48.920Z,-0.05
2018-03-18T08:19:16.321Z,-0.10
2018-03-18T08:21:43.715Z,-0.05
2018-03-18T08:24:11.105Z,0.01
2018-03-18T08:26:38.493Z,0.02
2018-03-18T08:29:05.881Z,-0.02
2018-03-18T08:31:33.277Z,0.08
2018-03-18T08:34:00.669Z,0.14
2018-03-18T08:36:28.071Z,0.12
2018-03-18T08:39:02.296Z,0.31
2018-03-18T08:41:29.706Z,0.21
2018-03-18T08:43:57.116Z,0.25
2018-03-18T08:46:24.508Z,0.12
2018-03-18T08:48:51.900Z,0.28
2018-03-18T08:51:19.293Z,-0.07
2018-03-18T08:53:46.702Z,0.04
2018-03-18T08:56:14.096Z,-0.10
2018-03-18T08:58:41.485Z,0.04
2018-03-18T09:01:08.883Z,0.11
2018-03-18T09:03:36.265Z,0.24
2018-03-18T09:06:03.671Z,0.59
2018-03-18T09:08:31.059Z,0.55
2018-03-18T09:10:58.447Z,0.83
2018-03-18T09:13:25.841Z,0.83
2018-03-18T09:15:53.229Z,0.89
2018-03-18T09:18:20.633Z,0.62
2018-03-18T09:20:48.042Z,0.83
2018-03-18T09:23:15.425Z,1.14
2018-03-18T09:25:42.855Z,1.16
2018-03-18T09:28:10.213Z,1.11
2018-03-18T09:30:37.625Z,1.11
2018-03-18T09:33:05.020Z,1.22
2018-03-18T09:35:32.417Z,1.01
2018-03-18T09:37:59.821Z,0.90
2018-03-18T09:40:27.213Z,1.20
2018-03-18T09:42:54.621Z,1.24
2018-03-18T09:45:22.001Z,1.37
2018-03-18T09:47:49.386Z,1.30
2018-03-18T09:50:16.783Z,1.46
2018-03-18T09:52:44.174Z,1.40
2018-03-18T09:55:11.569Z,1.44
2018-03-18T09:57:38.966Z,1.49
2018-03-18T10:00:06.353Z,1.14
2018-03-18T10:02:33.769Z,1.44
2018-03-18T10:05:01.139Z,1.87
2018-03-18T10:07:28.545Z,2.27
2018-03-18T10:09:55.937Z,2.41
2018-03-18T10:12:23.329Z,2.02
2018-03-18T10:14:50.721Z,1.86
2018-03-18T10:17:18.136Z,2.08
2018-03-18T10:19:45.537Z,2.02
2018-03-18T10:22:12.958Z,2.08
2018-03-18T10:24:40.338Z,1.92
2018-03-18T10:27:07.750Z,1.84
2018-03-18T10:29:35.133Z,2.23
2018-03-18T10:32:02.543Z,2.15
2018-03-18T10:34:29.937Z,2.37
2018-03-18T10:36:57.327Z,2.24
2018-03-18T10:39:24.721Z,2.23
2018-03-18T10:41:52.149Z,2.30
2018-03-18T10:44:19.514Z,2.54
2018-03-18T10:46:46.903Z,2.50
2018-03-18T10:49:14.299Z,2.48
2018-03-18T10:51:41.709Z,2.54
2018-03-18T10:54:09.102Z,2.76
2018-03-18T10:56:36.521Z,2.61
2018-03-18T10:59:03.909Z,2.84
2018-03-18T11:01:48.997Z,2.74
2018-03-18T11:04:17.329Z,2.87
2018-03-18T11:06:44.729Z,2.99
2018-03-18T11:09:12.148Z,2.88
2018-03-18T11:11:39.537Z,2.80
2018-03-18T11:14:06.934Z,2.89
2018-03-18T11:16:34.333Z,3.15
2018-03-18T11:19:01.725Z,3.10
2018-03-18T11:21:29.145Z,3.28
2018-03-18T11:23:56.553Z,3.47
2018-03-18T11:26:23.933Z,3.27
2018-03-18T11:28:51.333Z,3.52
2018-03-18T11:31:18.738Z,3.44
2018-03-18T11:33:46.142Z,3.40
2018-03-18T11:36:13.555Z,3.17
2018-03-18T11:38:40.969Z,3.25
2018-03-18T11:41:08.349Z,3.15
2018-03-18T11:43:35.785Z,3.30
2018-03-18T11:46:03.145Z,3.45
2018-03-18T11:48:30.541Z,3.71
2018-03-18T11:50:57.936Z,3.72
2018-03-18T11:53:25.334Z,3.60
2018-03-18T11:55:52.764Z,3.56
2018-03-18T11:58:20.122Z,3.70
2018-03-18T12:00:47.529Z,3.74
2018-03-18T12:03:14.918Z,3.60
2018-03-18T12:05:42.328Z,3.38
2018-03-18T12:11:02.685Z,3.64
2018-03-18T12:13:30.093Z,3.63
2018-03-18T12:15:57.485Z,3.66
2018-03-18T12:18:24.899Z,3.79
2018-03-18T12:20:52.313Z,3.60
2018-03-18T12:23:19.706Z,3.29
2018-03-18T12:25:47.106Z,3.42
2018-03-18T12:28:14.501Z,3.59
2018-03-18T12:30:41.889Z,3.53
2018-03-18T12:33:09.281Z,3.63
2018-03-18T12:35:36.687Z,3.45
2018-03-18T12:38:04.083Z,3.44
2018-03-18T12:40:34.069Z,3.46
2018-03-18T12:43:13.153Z,3.28
2018-03-18T12:45:40.557Z,3.24
2018-03-18T12:48:07.953Z,3.45
2018-03-18T12:50:35.345Z,3.55
2018-03-18T12:53:02.742Z,3.67
2018-03-18T12:55:30.165Z,3.79
2018-03-18T12:57:57.554Z,4.00
2018-03-18T13:00:24.943Z,3.88
2018-03-18T13:02:52.341Z,3.86
2018-03-18T13:05:19.794Z,4.03
2018-03-18T13:07:47.213Z,4.21
2018-03-18T13:10:14.661Z,4.13
2018-03-18T13:12:42.077Z,4.01
2018-03-18T13:15:09.502Z,3.91
2018-03-18T13:17:36.909Z,4.08
2018-03-18T13:20:04.317Z,4.09
2018-03-18T13:22:31.704Z,4.17
2018-03-18T13:24:59.102Z,4.28
2018-03-18T13:27:26.505Z,4.60
2018-03-18T13:29:53.890Z,5.02
2018-03-18T13:32:21.285Z,5.08
2018-03-18T13:34:48.677Z,5.39
2018-03-18T13:37:16.062Z,5.39
2018-03-18T13:39:43.448Z,5.04
2018-03-18T13:42:10.833Z,4.79
2018-03-18T13:44:38.228Z,4.38
2018-03-18T13:47:05.624Z,4.78
2018-03-18T13:49:33.001Z,5.18
2018-03-18T13:52:00.389Z,5.56
2018-03-18T13:54:27.778Z,5.69
2018-03-18T13:56:55.169Z,5.53
2018-03-18T13:59:22.570Z,5.63
2018-03-18T14:01:49.929Z,5.30
2018-03-18T14:04:17.320Z,5.01
2018-03-18T14:06:44.706Z,4.69
2018-03-18T14:09:12.114Z,4.87
2018-03-18T14:11:39.497Z,4.82
2018-03-18T14:14:06.877Z,5.07
2018-03-18T14:16:34.303Z,5.26
2018-03-18T14:19:01.673Z,5.20
2018-03-18T14:21:29.073Z,5.05
2018-03-18T14:23:56.457Z,5.17
2018-03-18T14:26:23.833Z,5.01
2018-03-18T14:28:51.225Z,4.92
2018-03-18T14:31:18.612Z,4.53
2018-03-18T14:33:46.013Z,4.64
2018-03-18T14:36:13.403Z,4.73
2018-03-18T14:38:40.789Z,4.78
2018-03-18T14:41:09.229Z,4.47
2018-03-18T14:43:36.636Z,4.47
2018-03-18T14:46:04.023Z,4.47
2018-03-18T14:48:31.451Z,4.21
2018-03-18T14:50:58.861Z,4.36
2018-03-18T14:53:26.238Z,4.36
2018-03-18T14:55:53.689Z,4.33
2018-03-18T14:58:21.122Z,4.40
2018-03-18T15:00:48.605Z,4.34
2018-03-18T15:03:16.013Z,4.56
2018-03-18T15:05:43.468Z,4.90
2018-03-18T15:08:10.953Z,4.85
2018-03-18T15:10:38.361Z,4.45
2018-03-18T15:13:05.744Z,4.72
2018-03-18T15:15:33.118Z,4.75
2018-03-18T15:18:00.531Z,4.63
2018-03-18T15:20:27.920Z,4.39
2018-03-18T15:22:56.354Z,4.20
2018-03-18T15:25:23.749Z,4.47
2018-03-18T15:27:51.137Z,4.59
2018-03-18T15:30:18.560Z,4.36
2018-03-18T15:32:45.968Z,4.52
2018-03-18T15:35:13.358Z,4.38
2018-03-18T15:37:40.742Z,4.25
2018-03-18T15:40:08.175Z,4.02
2018-03-18T15:42:35.565Z,4.12
2018-03-18T15:45:02.956Z,4.30
2018-03-18T15:47:43.108Z,4.10
2018-03-18T15:50:10.530Z,4.06
2018-03-18T15:52:37.924Z,4.33
2018-03-18T15:55:05.338Z,4.09
2018-03-18T15:57:32.729Z,4.03
2018-03-18T16:00:00.118Z,3.98
2018-03-18T16:02:27.530Z,4.01
2018-03-18T16:04:54.909Z,4.10
2018-03-18T16:07:22.363Z,4.26
2018-03-18T16:09:49.683Z,4.20
2018-03-18T16:12:17.074Z,3.99
2018-03-18T16:14:44.453Z,3.87
2018-03-18T16:17:11.886Z,3.83
2018-03-18T16:19:39.265Z,3.70
2018-03-18T16:22:06.679Z,3.58
2018-03-18T16:24:34.052Z,3.56
2018-03-18T16:27:01.438Z,3.36
2018-03-18T16:29:40.473Z,3.22
2018-03-18T16:32:07.865Z,3.21
2018-03-18T16:34:35.258Z,3.05
2018-03-18T16:37:02.682Z,2.98
2018-03-18T16:39:30.067Z,3.04
2018-03-18T16:41:57.468Z,2.89
2018-03-18T16:44:24.872Z,2.74
2018-03-18T16:46:52.271Z,2.80
2018-03-18T16:49:19.659Z,2.75
2018-03-18T16:51:47.060Z,2.88
2018-03-18T16:54:14.540Z,2.88
2018-03-18T16:56:41.926Z,2.76
2018-03-18T16:59:09.332Z,2.88
2018-03-18T17:01:36.762Z,2.65
2018-03-18T17:04:04.167Z,2.62
2018-03-18T17:06:31.621Z,2.36
2018-03-18T17:08:58.962Z,2.32
2018-03-18T17:11:26.372Z,2.15
2018-03-18T17:13:53.769Z,2.06
2018-03-18T17:16:21.234Z,1.94
2018-03-18T17:18:48.742Z,1.89
2018-03-18T17:21:16.142Z,1.84
2018-03-18T17:23:43.525Z,1.77
2018-03-18T17:26:10.917Z,1.74
2018-03-18T17:28:39.380Z,1.75
2018-03-18T17:31:08.079Z,1.75
2018-03-18T17:33:35.545Z,1.82
2018-03-18T17:36:02.947Z,1.79
2018-03-18T17:38:30.338Z,1.67
2018-03-18T17:40:57.725Z,1.69
2018-03-18T17:43:25.137Z,1.69
2018-03-18T17:46:04.305Z,1.68
2018-03-18T17:48:43.387Z,1.62
2018-03-18T17:51:22.437Z,1.62
2018-03-18T17:54:01.617Z,1.57
2018-03-18T17:56:37.709Z,1.72
2018-03-18T17:59:05.114Z,1.77
2018-03-18T18:01:32.521Z,1.72
2018-03-18T18:04:00.428Z,1.69
2018-03-18T18:06:27.833Z,1.70
2018-03-18T18:08:55.263Z,1.69
2018-03-18T18:11:22.657Z,1.70
2018-03-18T18:13:50.302Z,1.63
2018-03-18T18:16:29.430Z,1.63
2018-03-18T18:18:56.835Z,1.47
2018-03-18T18:21:24.222Z,1.44
2018-03-18T18:23:52.755Z,1.48
2018-03-18T18:26:20.604Z,1.37
2018-03-18T18:28:48.006Z,1.36
2018-03-18T18:31:15.394Z,1.36
2018-03-18T18:33:42.880Z,1.23
2018-03-18T18:36:10.271Z,1.35
2018-03-18T18:38:37.712Z,1.41
2018-03-18T18:41:05.182Z,1.32
2018-03-18T18:43:32.576Z,1.33
2018-03-18T18:45:59.963Z,1.35
2018-03-18T18:48:27.373Z,1.33
2018-03-18T18:50:54.785Z,1.35
2018-03-18T18:53:22.177Z,1.34
2018-03-18T18:55:49.597Z,1.19
2018-03-18T18:58:16.981Z,1.28
2018-03-18T19:00:44.369Z,1.05
2018-03-18T19:03:11.781Z,1.03
2018-03-18T19:05:39.182Z,1.11
2018-03-18T19:08:06.570Z,1.12
2018-03-18T19:10:33.983Z,1.01
2018-03-18T19:13:01.369Z,1.07
2018-03-18T19:15:36.954Z,1.06
2018-03-18T19:18:04.357Z,0.99
2018-03-18T19:20:31.778Z,0.90
2018-03-18T19:22:59.377Z,0.88
2018-03-18T19:25:27.317Z,0.82
2018-03-18T19:27:54.898Z,0.86
2018-03-18T19:30:22.294Z,0.94
2018-03-18T19:32:50.177Z,0.85
2018-03-18T19:35:18.918Z,0.91
2018-03-18T19:37:46.314Z,0.79
2018-03-18T19:40:21.933Z,0.70
2018-03-18T19:42:49.325Z,0.74
2018-03-18T19:45:16.708Z,0.77
2018-03-18T19:47:44.094Z,0.80
2018-03-18T19:50:11.501Z,0.79
2018-03-18T19:52:38.925Z,0.67
2018-03-18T19:55:06.313Z,0.70
2018-03-18T19:57:33.830Z,0.68
2018-03-18T20:00:02.214Z,0.71
2018-03-18T20:02:29.629Z,0.67
2018-03-18T20:04:57.057Z,0.58
2018-03-18T20:07:24.451Z,0.65
2018-03-18T20:09:51.837Z,0.63
2018-03-18T20:12:19.254Z,0.66
2018-03-18T20:14:46.638Z,0.64
2018-03-18T20:17:14.022Z,0.50
2018-03-18T20:19:41.421Z,0.52
2018-03-18T20:22:08.907Z,0.37
2018-03-18T20:24:36.290Z,0.41
2018-03-18T20:27:03.765Z,0.35
2018-03-18T20:29:32.077Z,0.20
2018-03-18T20:31:59.469Z,0.31
2018-03-18T20:34:26.894Z,0.36
2018-03-18T20:36:54.297Z,0.43
2018-03-18T20:39:22.806Z,0.47
2018-03-18T20:42:02.706Z,0.37
2018-03-18T20:44:30.086Z,0.36
2018-03-18T20:46:57.469Z,0.37
2018-03-18T20:49:24.894Z,0.32
2018-03-18T20:51:52.277Z,0.39
2018-03-18T20:54:19.669Z,0.41
2018-03-18T20:56:47.083Z,0.38
2018-03-18T20:59:14.477Z,0.39
2018-03-18T21:01:41.853Z,0.45
2018-03-18T21:04:09.266Z,0.42
2018-03-18T21:06:36.654Z,0.48
2018-03-18T21:09:04.042Z,0.42
2018-03-18T21:11:31.440Z,0.50
2018-03-18T21:13:58.828Z,0.54
2018-03-18T21:16:26.213Z,0.51
2018-03-18T21:18:53.630Z,0.43
2018-03-18T21:21:21.017Z,0.48
2018-03-18T21:23:48.413Z,0.37
2018-03-18T21:26:15.837Z,0.33
2018-03-18T21:28:43.261Z,0.43
2018-03-18T21:31:15.066Z,0.39
2018-03-18T21:33:43.541Z,0.42
2018-03-18T21:36:10.982Z,0.41
2018-03-18T21:38:38.376Z,0.33
2018-03-18T21:41:06.109Z,0.30
2018-03-18T21:43:34.045Z,0.27
2018-03-18T21:46:01.441Z,0.22
2018-03-18T21:48:29.014Z,0.27
2018-03-18T21:50:57.297Z,0.21
2018-03-18T21:53:24.824Z,0.17
2018-03-18T21:55:52.251Z,0.21
2018-03-18T21:58:22.118Z,0.26
2018-03-18T22:00:49.615Z,0.29
2018-03-18T22:03:17.397Z,0.28
2018-03-18T22:05:44.840Z,0.34
2018-03-18T22:08:12.229Z,0.38
2018-03-18T22:10:39.649Z,0.26
2018-03-18T22:13:07.071Z,0.20
2018-03-18T22:15:34.511Z,0.23
2018-03-18T22:18:01.922Z,0.27
2018-03-18T22:20:29.310Z,0.27
2018-03-18T22:22:56.702Z,0.22
2018-03-18T22:25:26.325Z,0.20
2018-03-18T22:27:53.721Z,0.19
2018-03-18T22:30:21.153Z,0.15
2018-03-18T22:32:48.561Z,0.12
2018-03-18T22:35:15.962Z,0.07
2018-03-18T22:37:43.363Z,0.11
2018-03-18T22:40:10.762Z,0.14
2018-03-18T22:42:38.150Z,0.11
2018-03-18T22:45:05.537Z,0.00
2018-03-18T22:47:32.954Z,0.10
2018-03-18T22:50:00.350Z,0.07
2018-03-18T22:52:27.728Z,0.05
2018-03-18T22:54:55.153Z,0.08
2018-03-18T22:57:22.537Z,0.06
2018-03-18T22:59:49.928Z,0.11
2018-03-18T23:02:17.434Z,0.04
2018-03-18T23:04:44.837Z,0.10
2018-03-18T23:07:12.227Z,0.05
2018-03-18T23:09:39.618Z,0.00
2018-03-18T23:12:07.007Z,0.06
2018-03-18T23:14:34.402Z,0.12
2018-03-18T23:17:01.810Z,0.15
2018-03-18T23:19:29.197Z,0.18
2018-03-18T23:21:56.583Z,0.14
2018-03-18T23:24:24.006Z,0.14
2018-03-18T23:26:51.384Z,0.07
2018-03-18T23:29:18.777Z,0.25
2018-03-18T23:31:46.174Z,0.20
2018-03-18T23:34:13.557Z,0.31
2018-03-18T23:36:40.949Z,0.31
2018-03-18T23:39:08.345Z,0.38
2018-03-18T23:41:35.745Z,0.31
2018-03-18T23:44:03.134Z,0.28
2018-03-18T23:46:30.549Z,0.15
2018-03-18T23:48:57.932Z,0.14
2018-03-18T23:51:25.328Z,0.14
2018-03-18T23:53:52.719Z,0.06
2018-03-18T23:56:20.109Z,0.12
2018-03-18T23:58:47.490Z,0.04
